Ashby, Minnesota
Current Conditions -  °F | °C
As of 12:54 AM on Monday 24 Nov 2014 (Local Time) from KFFM Reporting Station
Overcast Overcast  
Wind Chill: -18°   Ceiling: 1300
Heat Index: -8°   Visibility: 10mi
Dew Point: -11°   Wind: 22mph
Humidity: 79%   Direction: 340°NNW
Pressure: 29.54"   Gusts: 38mph
Location:  46.09°N, 95.82°W
Report Text: KFFM 240654Z AUTO 34019G33KT 10SM OVC013 M08/M11 A2954 RMK AO2
Loading
Personal Weather Stations






























Interactive Weather Map New forecast layout! Learn more

10-Day Weather Forecast

Advertisements
Track Severe Weather on mobile